sensor_id;sensor_type;location;lat;lon;timestamp;P1;durP1;ratioP1;P2;durP2;ratioP2
57720;SDS011;43562;43.064;0.160;2022-08-19T00:00:20;5.13;;;2.97;;
57720;SDS011;43562;43.064;0.160;2022-08-19T00:02:46;5.15;;;3.50;;
57720;SDS011;43562;43.064;0.160;2022-08-19T00:05:13;5.55;;;3.40;;
57720;SDS011;43562;43.064;0.160;2022-08-19T00:07:39;4.75;;;3.22;;
57720;SDS011;43562;43.064;0.160;2022-08-19T00:10:06;4.60;;;3.60;;
57720;SDS011;43562;43.064;0.160;2022-08-19T00:12:33;5.97;;;3.47;;
57720;SDS011;43562;43.064;0.160;2022-08-19T00:14:59;6.95;;;3.63;;
57720;SDS011;43562;43.064;0.160;2022-08-19T00:17:25;6.75;;;4.05;;
57720;SDS011;43562;43.064;0.160;2022-08-19T00:19:51;5.72;;;3.35;;
57720;SDS011;43562;43.064;0.160;2022-08-19T00:22:17;4.53;;;3.33;;
57720;SDS011;43562;43.064;0.160;2022-08-19T00:24:44;5.82;;;3.22;;
57720;SDS011;43562;43.064;0.160;2022-08-19T00:27:11;5.57;;;3.53;;
57720;SDS011;43562;43.064;0.160;2022-08-19T00:29:37;4.78;;;3.25;;
57720;SDS011;43562;43.064;0.160;2022-08-19T00:32:03;5.43;;;3.50;;
57720;SDS011;43562;43.064;0.160;2022-08-19T00:34:30;4.82;;;3.30;;
57720;SDS011;43562;43.064;0.160;2022-08-19T00:36:56;9.40;;;3.25;;
57720;SDS011;43562;43.064;0.160;2022-08-19T00:39:23;5.00;;;3.13;;
57720;SDS011;43562;43.064;0.160;2022-08-19T00:41:49;5.82;;;3.30;;
57720;SDS011;43562;43.064;0.160;2022-08-19T00:44:21;6.18;;;3.30;;
57720;SDS011;43562;43.064;0.160;2022-08-19T00:46:48;8.82;;;4.18;;
57720;SDS011;43562;43.064;0.160;2022-08-19T00:49:36;4.10;;;3.28;;
57720;SDS011;43562;43.064;0.160;2022-08-19T00:52:06;9.35;;;3.20;;
57720;SDS011;43562;43.064;0.160;2022-08-19T00:54:33;6.57;;;3.78;;
57720;SDS011;43562;43.064;0.160;2022-08-19T00:57:02;5.45;;;3.22;;
57720;SDS011;43562;43.064;0.160;2022-08-19T00:59:31;5.20;;;3.50;;
57720;SDS011;43562;43.064;0.160;2022-08-19T01:01:57;3.80;;;3.17;;
57720;SDS011;43562;43.064;0.160;2022-08-19T01:04:23;6.85;;;3.63;;
57720;SDS011;43562;43.064;0.160;2022-08-19T01:06:49;6.38;;;3.10;;
57720;SDS011;43562;43.064;0.160;2022-08-19T01:09:15;5.97;;;3.65;;
57720;SDS011;43562;43.064;0.160;2022-08-19T01:11:41;6.50;;;3.33;;
57720;SDS011;43562;43.064;0.160;2022-08-19T01:14:08;7.90;;;3.80;;
57720;SDS011;43562;43.064;0.160;2022-08-19T01:16:35;5.07;;;3.22;;
57720;SDS011;43562;43.064;0.160;2022-08-19T01:19:03;4.88;;;3.67;;
57720;SDS011;43562;43.064;0.160;2022-08-19T01:21:34;4.65;;;3.42;;
57720;SDS011;43562;43.064;0.160;2022-08-19T01:24:03;6.60;;;3.65;;
57720;SDS011;43562;43.064;0.160;2022-08-19T01:26:29;6.65;;;3.63;;
57720;SDS011;43562;43.064;0.160;2022-08-19T01:28:56;6.07;;;3.63;;
57720;SDS011;43562;43.064;0.160;2022-08-19T01:31:24;5.65;;;3.38;;
57720;SDS011;43562;43.064;0.160;2022-08-19T01:33:51;6.78;;;3.42;;
57720;SDS011;43562;43.064;0.160;2022-08-19T01:38:51;4.05;;;3.08;;
57720;SDS011;43562;43.064;0.160;2022-08-19T01:41:17;7.47;;;3.50;;
57720;SDS011;43562;43.064;0.160;2022-08-19T01:43:44;5.15;;;3.50;;
57720;SDS011;43562;43.064;0.160;2022-08-19T01:46:10;3.65;;;2.67;;
57720;SDS011;43562;43.064;0.160;2022-08-19T01:48:40;7.20;;;3.63;;
57720;SDS011;43562;43.064;0.160;2022-08-19T01:51:06;5.78;;;3.08;;
57720;SDS011;43562;43.064;0.160;2022-08-19T01:53:33;6.85;;;3.55;;
57720;SDS011;43562;43.064;0.160;2022-08-19T01:55:59;5.50;;;3.40;;
57720;SDS011;43562;43.064;0.160;2022-08-19T01:58:35;4.30;;;3.20;;
57720;SDS011;43562;43.064;0.160;2022-08-19T02:01:02;3.47;;;2.80;;
57720;SDS011;43562;43.064;0.160;2022-08-19T02:03:28;4.35;;;3.40;;
57720;SDS011;43562;43.064;0.160;2022-08-19T02:05:56;3.60;;;3.15;;
57720;SDS011;43562;43.064;0.160;2022-08-19T02:08:22;4.03;;;3.42;;
57720;SDS011;43562;43.064;0.160;2022-08-19T02:10:48;5.47;;;3.90;;
57720;SDS011;43562;43.064;0.160;2022-08-19T02:13:14;5.15;;;3.80;;
57720;SDS011;43562;43.064;0.160;2022-08-19T02:15:41;4.10;;;3.65;;
57720;SDS011;43562;43.064;0.160;2022-08-19T02:18:07;5.72;;;3.28;;
57720;SDS011;43562;43.064;0.160;2022-08-19T02:20:33;3.83;;;3.40;;
57720;SDS011;43562;43.064;0.160;2022-08-19T02:23:00;5.97;;;3.47;;
57720;SDS011;43562;43.064;0.160;2022-08-19T02:25:26;5.13;;;3.03;;
57720;SDS011;43562;43.064;0.160;2022-08-19T02:27:53;10.25;;;3.78;;
57720;SDS011;43562;43.064;0.160;2022-08-19T02:30:19;6.53;;;3.65;;
57720;SDS011;43562;43.064;0.160;2022-08-19T02:32:45;7.10;;;4.25;;
57720;SDS011;43562;43.064;0.160;2022-08-19T02:35:14;5.25;;;3.67;;
57720;SDS011;43562;43.064;0.160;2022-08-19T02:37:41;9.82;;;4.50;;
57720;SDS011;43562;43.064;0.160;2022-08-19T02:40:27;8.05;;;4.25;;
57720;SDS011;43562;43.064;0.160;2022-08-19T02:42:53;7.05;;;4.88;;
57720;SDS011;43562;43.064;0.160;2022-08-19T02:45:19;8.68;;;4.78;;
57720;SDS011;43562;43.064;0.160;2022-08-19T02:47:46;5.25;;;4.03;;
57720;SDS011;43562;43.064;0.160;2022-08-19T02:50:12;4.32;;;3.72;;
57720;SDS011;43562;43.064;0.160;2022-08-19T02:52:39;5.32;;;4.25;;
57720;SDS011;43562;43.064;0.160;2022-08-19T02:55:05;8.82;;;4.10;;
57720;SDS011;43562;43.064;0.160;2022-08-19T02:57:32;6.25;;;3.67;;
57720;SDS011;43562;43.064;0.160;2022-08-19T02:59:59;5.85;;;4.10;;
57720;SDS011;43562;43.064;0.160;2022-08-19T03:02:26;5.82;;;3.67;;
57720;SDS011;43562;43.064;0.160;2022-08-19T03:04:52;7.65;;;3.75;;
57720;SDS011;43562;43.064;0.160;2022-08-19T03:07:18;5.50;;;3.95;;
57720;SDS011;43562;43.064;0.160;2022-08-19T03:09:44;9.45;;;3.97;;
57720;SDS011;43562;43.064;0.160;2022-08-19T03:12:10;7.60;;;3.58;;
57720;SDS011;43562;43.064;0.160;2022-08-19T03:14:37;6.85;;;4.03;;
57720;SDS011;43562;43.064;0.160;2022-08-19T03:17:03;4.90;;;3.38;;
57720;SDS011;43562;43.064;0.160;2022-08-19T03:19:30;9.85;;;5.57;;
57720;SDS011;43562;43.064;0.160;2022-08-19T03:21:56;7.95;;;3.70;;
57720;SDS011;43562;43.064;0.160;2022-08-19T03:24:22;5.85;;;3.63;;
57720;SDS011;43562;43.064;0.160;2022-08-19T03:26:50;4.97;;;3.58;;
57720;SDS011;43562;43.064;0.160;2022-08-19T03:29:17;4.60;;;3.75;;
57720;SDS011;43562;43.064;0.160;2022-08-19T03:31:44;6.38;;;3.60;;
57720;SDS011;43562;43.064;0.160;2022-08-19T03:34:11;6.68;;;3.72;;
57720;SDS011;43562;43.064;0.160;2022-08-19T03:36:37;4.80;;;3.50;;
57720;SDS011;43562;43.064;0.160;2022-08-19T03:39:03;6.55;;;3.75;;
57720;SDS011;43562;43.064;0.160;2022-08-19T03:41:31;9.45;;;3.88;;
57720;SDS011;43562;43.064;0.160;2022-08-19T03:43:57;7.07;;;3.67;;
57720;SDS011;43562;43.064;0.160;2022-08-19T03:46:25;5.90;;;3.67;;
57720;SDS011;43562;43.064;0.160;2022-08-19T03:48:52;6.45;;;3.97;;
57720;SDS011;43562;43.064;0.160;2022-08-19T03:51:22;12.40;;;3.63;;
57720;SDS011;43562;43.064;0.160;2022-08-19T03:53:49;6.65;;;4.07;;
57720;SDS011;43562;43.064;0.160;2022-08-19T03:56:16;6.60;;;4.38;;
57720;SDS011;43562;43.064;0.160;2022-08-19T03:58:42;7.00;;;3.90;;
57720;SDS011;43562;43.064;0.160;2022-08-19T04:01:10;7.07;;;4.00;;
57720;SDS011;43562;43.064;0.160;2022-08-19T04:03:36;6.43;;;4.13;;
57720;SDS011;43562;43.064;0.160;2022-08-19T04:06:12;5.10;;;3.53;;
57720;SDS011;43562;43.064;0.160;2022-08-19T04:08:39;6.03;;;4.18;;
57720;SDS011;43562;43.064;0.160;2022-08-19T04:11:09;7.05;;;4.15;;
57720;SDS011;43562;43.064;0.160;2022-08-19T04:13:35;7.20;;;3.75;;
57720;SDS011;43562;43.064;0.160;2022-08-19T04:16:02;5.15;;;3.33;;
57720;SDS011;43562;43.064;0.160;2022-08-19T04:18:29;5.03;;;3.47;;
57720;SDS011;43562;43.064;0.160;2022-08-19T04:20:55;4.82;;;3.55;;
57720;SDS011;43562;43.064;0.160;2022-08-19T04:23:22;5.45;;;3.42;;
57720;SDS011;43562;43.064;0.160;2022-08-19T04:25:48;5.35;;;3.25;;
57720;SDS011;43562;43.064;0.160;2022-08-19T04:28:14;6.90;;;4.32;;
57720;SDS011;43562;43.064;0.160;2022-08-19T04:30:41;4.13;;;3.20;;
57720;SDS011;43562;43.064;0.160;2022-08-19T04:33:08;4.30;;;3.58;;
57720;SDS011;43562;43.064;0.160;2022-08-19T04:35:42;4.95;;;3.38;;
57720;SDS011;43562;43.064;0.160;2022-08-19T04:38:09;6.10;;;3.47;;
57720;SDS011;43562;43.064;0.160;2022-08-19T04:40:42;6.95;;;4.32;;
57720;SDS011;43562;43.064;0.160;2022-08-19T04:43:27;5.97;;;3.90;;
57720;SDS011;43562;43.064;0.160;2022-08-19T04:45:53;6.35;;;4.20;;
57720;SDS011;43562;43.064;0.160;2022-08-19T04:48:19;6.28;;;3.60;;
57720;SDS011;43562;43.064;0.160;2022-08-19T04:50:50;7.63;;;3.95;;
57720;SDS011;43562;43.064;0.160;2022-08-19T04:53:17;5.40;;;3.50;;
57720;SDS011;43562;43.064;0.160;2022-08-19T04:55:43;10.15;;;4.35;;
57720;SDS011;43562;43.064;0.160;2022-08-19T04:58:09;4.57;;;3.90;;
57720;SDS011;43562;43.064;0.160;2022-08-19T05:00:37;4.50;;;3.20;;
57720;SDS011;43562;43.064;0.160;2022-08-19T05:03:03;5.10;;;3.53;;
57720;SDS011;43562;43.064;0.160;2022-08-19T05:05:29;9.48;;;3.13;;
57720;SDS011;43562;43.064;0.160;2022-08-19T05:07:56;6.75;;;3.40;;
57720;SDS011;43562;43.064;0.160;2022-08-19T05:10:22;4.65;;;3.10;;
57720;SDS011;43562;43.064;0.160;2022-08-19T05:12:48;4.70;;;3.10;;
57720;SDS011;43562;43.064;0.160;2022-08-19T05:15:14;4.43;;;3.92;;
57720;SDS011;43562;43.064;0.160;2022-08-19T05:17:40;3.28;;;2.75;;
57720;SDS011;43562;43.064;0.160;2022-08-19T05:20:26;5.35;;;3.38;;
57720;SDS011;43562;43.064;0.160;2022-08-19T05:23:11;3.88;;;2.78;;
57720;SDS011;43562;43.064;0.160;2022-08-19T05:25:40;3.50;;;2.92;;
57720;SDS011;43562;43.064;0.160;2022-08-19T05:28:06;4.78;;;3.15;;
57720;SDS011;43562;43.064;0.160;2022-08-19T05:30:32;6.10;;;2.75;;
57720;SDS011;43562;43.064;0.160;2022-08-19T05:32:59;6.03;;;3.53;;
57720;SDS011;43562;43.064;0.160;2022-08-19T05:35:25;5.60;;;3.10;;
57720;SDS011;43562;43.064;0.160;2022-08-19T05:37:51;6.00;;;2.80;;
57720;SDS011;43562;43.064;0.160;2022-08-19T05:40:19;3.85;;;2.88;;
57720;SDS011;43562;43.064;0.160;2022-08-19T05:42:45;6.53;;;5.22;;
57720;SDS011;43562;43.064;0.160;2022-08-19T05:45:11;6.20;;;3.63;;
57720;SDS011;43562;43.064;0.160;2022-08-19T05:47:37;6.93;;;3.30;;
57720;SDS011;43562;43.064;0.160;2022-08-19T05:50:03;5.68;;;3.30;;
57720;SDS011;43562;43.064;0.160;2022-08-19T05:52:30;8.52;;;4.05;;
57720;SDS011;43562;43.064;0.160;2022-08-19T05:54:56;4.78;;;3.17;;
57720;SDS011;43562;43.064;0.160;2022-08-19T05:57:23;6.70;;;3.75;;
57720;SDS011;43562;43.064;0.160;2022-08-19T05:59:49;4.90;;;3.78;;
57720;SDS011;43562;43.064;0.160;2022-08-19T06:02:16;7.47;;;3.53;;
57720;SDS011;43562;43.064;0.160;2022-08-19T06:04:42;6.47;;;3.55;;
57720;SDS011;43562;43.064;0.160;2022-08-19T06:07:08;9.48;;;3.70;;
57720;SDS011;43562;43.064;0.160;2022-08-19T06:09:34;9.05;;;5.47;;
57720;SDS011;43562;43.064;0.160;2022-08-19T06:12:02;8.85;;;3.97;;
57720;SDS011;43562;43.064;0.160;2022-08-19T06:14:30;9.15;;;5.03;;
57720;SDS011;43562;43.064;0.160;2022-08-19T06:16:57;8.80;;;4.35;;
57720;SDS011;43562;43.064;0.160;2022-08-19T06:19:26;6.93;;;4.65;;
57720;SDS011;43562;43.064;0.160;2022-08-19T06:21:54;8.38;;;4.07;;
57720;SDS011;43562;43.064;0.160;2022-08-19T06:24:23;8.55;;;4.88;;
57720;SDS011;43562;43.064;0.160;2022-08-19T06:26:50;8.57;;;4.80;;
57720;SDS011;43562;43.064;0.160;2022-08-19T06:29:18;11.73;;;5.07;;
57720;SDS011;43562;43.064;0.160;2022-08-19T06:31:45;10.57;;;5.00;;
57720;SDS011;43562;43.064;0.160;2022-08-19T06:34:12;10.65;;;5.50;;
57720;SDS011;43562;43.064;0.160;2022-08-19T06:36:39;14.57;;;6.22;;
57720;SDS011;43562;43.064;0.160;2022-08-19T06:39:11;11.30;;;5.72;;
57720;SDS011;43562;43.064;0.160;2022-08-19T06:41:39;8.93;;;6.88;;
57720;SDS011;43562;43.064;0.160;2022-08-19T06:44:06;9.60;;;5.18;;
57720;SDS011;43562;43.064;0.160;2022-08-19T06:46:32;9.88;;;6.07;;
57720;SDS011;43562;43.064;0.160;2022-08-19T06:48:58;7.72;;;5.18;;
57720;SDS011;43562;43.064;0.160;2022-08-19T06:51:25;8.68;;;5.00;;
57720;SDS011;43562;43.064;0.160;2022-08-19T06:53:52;9.88;;;5.32;;
57720;SDS011;43562;43.064;0.160;2022-08-19T06:56:25;8.38;;;4.75;;
57720;SDS011;43562;43.064;0.160;2022-08-19T06:58:59;8.98;;;5.00;;
57720;SDS011;43562;43.064;0.160;2022-08-19T07:01:25;9.57;;;4.53;;
57720;SDS011;43562;43.064;0.160;2022-08-19T07:03:51;7.28;;;4.68;;
57720;SDS011;43562;43.064;0.160;2022-08-19T07:06:18;7.60;;;4.60;;
57720;SDS011;43562;43.064;0.160;2022-08-19T07:08:45;8.25;;;4.82;;
57720;SDS011;43562;43.064;0.160;2022-08-19T07:11:12;7.50;;;4.78;;
57720;SDS011;43562;43.064;0.160;2022-08-19T07:13:39;6.30;;;5.00;;
57720;SDS011;43562;43.064;0.160;2022-08-19T07:16:09;6.65;;;4.43;;
57720;SDS011;43562;43.064;0.160;2022-08-19T07:18:35;6.55;;;4.78;;
57720;SDS011;43562;43.064;0.160;2022-08-19T07:21:12;6.75;;;4.88;;
57720;SDS011;43562;43.064;0.160;2022-08-19T07:23:38;6.50;;;3.97;;
57720;SDS011;43562;43.064;0.160;2022-08-19T07:26:08;8.05;;;4.40;;
57720;SDS011;43562;43.064;0.160;2022-08-19T07:28:35;5.45;;;4.07;;
57720;SDS011;43562;43.064;0.160;2022-08-19T07:31:04;6.55;;;3.88;;
57720;SDS011;43562;43.064;0.160;2022-08-19T07:33:30;5.53;;;3.58;;
57720;SDS011;43562;43.064;0.160;2022-08-19T07:35:57;4.43;;;3.28;;
57720;SDS011;43562;43.064;0.160;2022-08-19T07:38:24;4.55;;;3.00;;
57720;SDS011;43562;43.064;0.160;2022-08-19T07:40:50;5.15;;;3.33;;
57720;SDS011;43562;43.064;0.160;2022-08-19T07:43:16;4.30;;;3.20;;
57720;SDS011;43562;43.064;0.160;2022-08-19T07:45:47;3.58;;;3.28;;
57720;SDS011;43562;43.064;0.160;2022-08-19T07:48:13;4.28;;;2.83;;
57720;SDS011;43562;43.064;0.160;2022-08-19T07:50:40;4.70;;;2.88;;
57720;SDS011;43562;43.064;0.160;2022-08-19T07:53:06;5.57;;;3.53;;
57720;SDS011;43562;43.064;0.160;2022-08-19T07:55:32;5.53;;;3.42;;
57720;SDS011;43562;43.064;0.160;2022-08-19T07:57:59;3.13;;;2.67;;
57720;SDS011;43562;43.064;0.160;2022-08-19T08:00:25;2.88;;;2.40;;
57720;SDS011;43562;43.064;0.160;2022-08-19T08:02:52;3.97;;;2.80;;
57720;SDS011;43562;43.064;0.160;2022-08-19T08:05:18;2.75;;;2.28;;
57720;SDS011;43562;43.064;0.160;2022-08-19T08:08:02;10.43;;;6.22;;
57720;SDS011;43562;43.064;0.160;2022-08-19T08:10:47;4.03;;;2.30;;
57720;SDS011;43562;43.064;0.160;2022-08-19T08:13:13;2.63;;;2.05;;
57720;SDS011;43562;43.064;0.160;2022-08-19T08:15:39;3.75;;;2.17;;
57720;SDS011;43562;43.064;0.160;2022-08-19T08:18:05;5.72;;;2.13;;
57720;SDS011;43562;43.064;0.160;2022-08-19T08:20:32;2.25;;;1.95;;
57720;SDS011;43562;43.064;0.160;2022-08-19T08:22:58;5.40;;;2.03;;
57720;SDS011;43562;43.064;0.160;2022-08-19T08:25:43;2.55;;;1.88;;
57720;SDS011;43562;43.064;0.160;2022-08-19T08:28:09;1.60;;;1.50;;
57720;SDS011;43562;43.064;0.160;2022-08-19T08:30:35;2.25;;;2.05;;
57720;SDS011;43562;43.064;0.160;2022-08-19T08:33:04;1.80;;;1.70;;
57720;SDS011;43562;43.064;0.160;2022-08-19T08:35:31;2.17;;;1.58;;
57720;SDS011;43562;43.064;0.160;2022-08-19T08:37:58;1.55;;;1.17;;
57720;SDS011;43562;43.064;0.160;2022-08-19T08:40:42;1.70;;;1.40;;
57720;SDS011;43562;43.064;0.160;2022-08-19T08:46:04;1.30;;;1.10;;
57720;SDS011;43562;43.064;0.160;2022-08-19T08:48:52;2.63;;;0.90;;
57720;SDS011;43562;43.064;0.160;2022-08-19T08:51:21;1.30;;;0.80;;
57720;SDS011;43562;43.064;0.160;2022-08-19T08:53:49;1.88;;;1.00;;
57720;SDS011;43562;43.064;0.160;2022-08-19T08:56:17;0.93;;;0.80;;
57720;SDS011;43562;43.064;0.160;2022-08-19T08:59:46;1.20;;;0.90;;
57720;SDS011;43562;43.064;0.160;2022-08-19T09:01:42;0.88;;;0.50;;
57720;SDS011;43562;43.064;0.160;2022-08-19T09:04:08;1.05;;;0.65;;
57720;SDS011;43562;43.064;0.160;2022-08-19T09:09:16;0.95;;;0.70;;
57720;SDS011;43562;43.064;0.160;2022-08-19T09:14:35;0.77;;;0.50;;
57720;SDS011;43562;43.064;0.160;2022-08-19T09:17:06;0.93;;;0.75;;
57720;SDS011;43562;43.064;0.160;2022-08-19T09:19:33;1.40;;;0.68;;
57720;SDS011;43562;43.064;0.160;2022-08-19T09:21:59;0.73;;;0.60;;
57720;SDS011;43562;43.064;0.160;2022-08-19T09:24:26;0.93;;;0.77;;
57720;SDS011;43562;43.064;0.160;2022-08-19T09:26:52;1.15;;;0.90;;
57720;SDS011;43562;43.064;0.160;2022-08-19T09:29:18;1.23;;;0.50;;
57720;SDS011;43562;43.064;0.160;2022-08-19T09:31:45;0.98;;;0.57;;
57720;SDS011;43562;43.064;0.160;2022-08-19T09:34:12;0.70;;;0.70;;
57720;SDS011;43562;43.064;0.160;2022-08-19T09:36:38;1.75;;;0.65;;
57720;SDS011;43562;43.064;0.160;2022-08-19T09:39:04;2.42;;;1.17;;
57720;SDS011;43562;43.064;0.160;2022-08-19T09:41:30;0.68;;;0.68;;
57720;SDS011;43562;43.064;0.160;2022-08-19T09:43:57;1.15;;;0.50;;
57720;SDS011;43562;43.064;0.160;2022-08-19T09:46:24;1.33;;;0.70;;
57720;SDS011;43562;43.064;0.160;2022-08-19T09:48:51;0.80;;;0.73;;
57720;SDS011;43562;43.064;0.160;2022-08-19T09:51:19;0.85;;;0.60;;
57720;SDS011;43562;43.064;0.160;2022-08-19T09:53:46;0.95;;;0.75;;
57720;SDS011;43562;43.064;0.160;2022-08-19T09:56:15;1.30;;;0.68;;
57720;SDS011;43562;43.064;0.160;2022-08-19T09:58:41;2.33;;;0.60;;
57720;SDS011;43562;43.064;0.160;2022-08-19T10:01:08;1.00;;;0.73;;
57720;SDS011;43562;43.064;0.160;2022-08-19T10:03:35;1.95;;;0.50;;
57720;SDS011;43562;43.064;0.160;2022-08-19T10:06:04;1.70;;;0.60;;
57720;SDS011;43562;43.064;0.160;2022-08-19T10:08:31;0.88;;;0.60;;
57720;SDS011;43562;43.064;0.160;2022-08-19T10:10:58;1.25;;;0.70;;
57720;SDS011;43562;43.064;0.160;2022-08-19T10:13:26;2.38;;;0.77;;
57720;SDS011;43562;43.064;0.160;2022-08-19T10:15:53;0.93;;;0.60;;
57720;SDS011;43562;43.064;0.160;2022-08-19T10:18:21;1.05;;;0.47;;
57720;SDS011;43562;43.064;0.160;2022-08-19T10:20:48;0.77;;;0.43;;
57720;SDS011;43562;43.064;0.160;2022-08-19T10:23:16;1.00;;;0.40;;
57720;SDS011;43562;43.064;0.160;2022-08-19T10:25:42;1.58;;;0.60;;
57720;SDS011;43562;43.064;0.160;2022-08-19T10:28:08;0.70;;;0.47;;
57720;SDS011;43562;43.064;0.160;2022-08-19T10:30:37;1.45;;;0.57;;
57720;SDS011;43562;43.064;0.160;2022-08-19T10:33:03;0.57;;;0.50;;
57720;SDS011;43562;43.064;0.160;2022-08-19T10:35:30;3.15;;;0.50;;
57720;SDS011;43562;43.064;0.160;2022-08-19T10:37:56;1.65;;;0.43;;
57720;SDS011;43562;43.064;0.160;2022-08-19T10:40:25;0.93;;;0.50;;
57720;SDS011;43562;43.064;0.160;2022-08-19T10:42:51;1.85;;;0.50;;
57720;SDS011;43562;43.064;0.160;2022-08-19T10:45:18;1.20;;;0.50;;
57720;SDS011;43562;43.064;0.160;2022-08-19T10:47:44;0.82;;;0.50;;
57720;SDS011;43562;43.064;0.160;2022-08-19T10:50:11;2.42;;;0.60;;
57720;SDS011;43562;43.064;0.160;2022-08-19T10:52:56;1.08;;;0.60;;
57720;SDS011;43562;43.064;0.160;2022-08-19T10:55:23;2.60;;;0.80;;
57720;SDS011;43562;43.064;0.160;2022-08-19T10:58:14;1.50;;;0.63;;
57720;SDS011;43562;43.064;0.160;2022-08-19T11:00:41;2.60;;;0.70;;
57720;SDS011;43562;43.064;0.160;2022-08-19T11:03:08;1.50;;;0.77;;
57720;SDS011;43562;43.064;0.160;2022-08-19T11:05:36;0.95;;;0.50;;
57720;SDS011;43562;43.064;0.160;2022-08-19T11:08:04;2.28;;;0.60;;
57720;SDS011;43562;43.064;0.160;2022-08-19T11:10:33;0.70;;;0.60;;
57720;SDS011;43562;43.064;0.160;2022-08-19T11:13:02;0.77;;;0.50;;
57720;SDS011;43562;43.064;0.160;2022-08-19T11:15:29;0.70;;;0.57;;
57720;SDS011;43562;43.064;0.160;2022-08-19T11:17:57;1.95;;;0.50;;
57720;SDS011;43562;43.064;0.160;2022-08-19T11:20:23;0.55;;;0.55;;
57720;SDS011;43562;43.064;0.160;2022-08-19T11:22:50;0.57;;;0.35;;
57720;SDS011;43562;43.064;0.160;2022-08-19T11:25:19;1.75;;;0.50;;
57720;SDS011;43562;43.064;0.160;2022-08-19T11:27:46;1.95;;;0.60;;
57720;SDS011;43562;43.064;0.160;2022-08-19T11:30:15;0.80;;;0.50;;
57720;SDS011;43562;43.064;0.160;2022-08-19T11:32:42;1.55;;;0.50;;
57720;SDS011;43562;43.064;0.160;2022-08-19T11:35:08;2.30;;;0.80;;
57720;SDS011;43562;43.064;0.160;2022-08-19T11:37:36;1.10;;;0.70;;
57720;SDS011;43562;43.064;0.160;2022-08-19T11:40:03;1.48;;;0.70;;
57720;SDS011;43562;43.064;0.160;2022-08-19T11:42:30;2.10;;;0.60;;
57720;SDS011;43562;43.064;0.160;2022-08-19T11:45:15;0.63;;;0.50;;
57720;SDS011;43562;43.064;0.160;2022-08-19T11:47:41;1.08;;;0.80;;
57720;SDS011;43562;43.064;0.160;2022-08-19T11:50:07;1.15;;;0.90;;
57720;SDS011;43562;43.064;0.160;2022-08-19T11:52:34;2.45;;;0.80;;
57720;SDS011;43562;43.064;0.160;2022-08-19T11:55:01;1.58;;;0.85;;
57720;SDS011;43562;43.064;0.160;2022-08-19T11:57:27;0.95;;;0.88;;
57720;SDS011;43562;43.064;0.160;2022-08-19T11:59:54;1.00;;;0.90;;
57720;SDS011;43562;43.064;0.160;2022-08-19T12:02:21;0.88;;;0.70;;
57720;SDS011;43562;43.064;0.160;2022-08-19T12:04:48;0.80;;;0.80;;
57720;SDS011;43562;43.064;0.160;2022-08-19T12:07:15;2.10;;;1.00;;
57720;SDS011;43562;43.064;0.160;2022-08-19T12:09:41;1.30;;;1.20;;
57720;SDS011;43562;43.064;0.160;2022-08-19T12:12:07;1.33;;;1.00;;
57720;SDS011;43562;43.064;0.160;2022-08-19T12:14:34;2.75;;;0.98;;
57720;SDS011;43562;43.064;0.160;2022-08-19T12:17:00;3.80;;;1.17;;
57720;SDS011;43562;43.064;0.160;2022-08-19T12:19:27;1.85;;;1.02;;
57720;SDS011;43562;43.064;0.160;2022-08-19T12:21:54;1.90;;;0.90;;
57720;SDS011;43562;43.064;0.160;2022-08-19T12:24:24;1.48;;;1.33;;
57720;SDS011;43562;43.064;0.160;2022-08-19T12:26:51;3.40;;;1.20;;
57720;SDS011;43562;43.064;0.160;2022-08-19T12:29:18;2.75;;;1.08;;
57720;SDS011;43562;43.064;0.160;2022-08-19T12:31:44;2.90;;;1.30;;
57720;SDS011;43562;43.064;0.160;2022-08-19T12:34:11;1.65;;;1.10;;
57720;SDS011;43562;43.064;0.160;2022-08-19T12:36:39;1.20;;;1.08;;
57720;SDS011;43562;43.064;0.160;2022-08-19T12:39:07;4.43;;;0.98;;
57720;SDS011;43562;43.064;0.160;2022-08-19T12:41:34;1.17;;;1.00;;
57720;SDS011;43562;43.064;0.160;2022-08-19T12:44:01;3.50;;;2.70;;
57720;SDS011;43562;43.064;0.160;2022-08-19T12:46:27;3.08;;;1.30;;
57720;SDS011;43562;43.064;0.160;2022-08-19T12:48:53;1.20;;;1.10;;
57720;SDS011;43562;43.064;0.160;2022-08-19T12:51:19;1.20;;;1.10;;
57720;SDS011;43562;43.064;0.160;2022-08-19T12:53:46;1.02;;;0.98;;
57720;SDS011;43562;43.064;0.160;2022-08-19T12:56:12;1.10;;;1.00;;
57720;SDS011;43562;43.064;0.160;2022-08-19T12:58:40;2.53;;;1.38;;
57720;SDS011;43562;43.064;0.160;2022-08-19T13:01:16;1.15;;;0.88;;
57720;SDS011;43562;43.064;0.160;2022-08-19T13:03:42;1.20;;;0.90;;
57720;SDS011;43562;43.064;0.160;2022-08-19T13:06:08;1.30;;;1.20;;
57720;SDS011;43562;43.064;0.160;2022-08-19T13:08:35;1.95;;;1.25;;
57720;SDS011;43562;43.064;0.160;2022-08-19T13:11:11;1.23;;;1.13;;
57720;SDS011;43562;43.064;0.160;2022-08-19T13:13:39;1.08;;;1.00;;
57720;SDS011;43562;43.064;0.160;2022-08-19T13:16:06;4.72;;;1.38;;
57720;SDS011;43562;43.064;0.160;2022-08-19T13:18:32;1.92;;;1.33;;
57720;SDS011;43562;43.064;0.160;2022-08-19T13:21:05;1.48;;;1.20;;
57720;SDS011;43562;43.064;0.160;2022-08-19T13:23:33;2.47;;;1.00;;
57720;SDS011;43562;43.064;0.160;2022-08-19T13:26:01;2.17;;;1.00;;
57720;SDS011;43562;43.064;0.160;2022-08-19T13:28:28;1.63;;;1.00;;
57720;SDS011;43562;43.064;0.160;2022-08-19T13:31:15;1.00;;;1.00;;
57720;SDS011;43562;43.064;0.160;2022-08-19T13:34:00;1.95;;;1.00;;
57720;SDS011;43562;43.064;0.160;2022-08-19T13:36:26;0.90;;;0.90;;
57720;SDS011;43562;43.064;0.160;2022-08-19T13:38:52;1.73;;;1.17;;
57720;SDS011;43562;43.064;0.160;2022-08-19T13:41:19;1.65;;;1.00;;
57720;SDS011;43562;43.064;0.160;2022-08-19T13:43:45;1.42;;;1.33;;
57720;SDS011;43562;43.064;0.160;2022-08-19T13:46:11;1.35;;;1.17;;
57720;SDS011;43562;43.064;0.160;2022-08-19T13:48:40;1.70;;;1.27;;
57720;SDS011;43562;43.064;0.160;2022-08-19T13:51:07;2.50;;;1.40;;
57720;SDS011;43562;43.064;0.160;2022-08-19T13:53:37;1.88;;;1.17;;
57720;SDS011;43562;43.064;0.160;2022-08-19T13:56:07;1.05;;;1.00;;
57720;SDS011;43562;43.064;0.160;2022-08-19T13:58:33;1.63;;;1.05;;
57720;SDS011;43562;43.064;0.160;2022-08-19T14:00:59;2.17;;;0.98;;
57720;SDS011;43562;43.064;0.160;2022-08-19T14:03:26;1.25;;;0.90;;
57720;SDS011;43562;43.064;0.160;2022-08-19T14:05:52;2.53;;;1.30;;
57720;SDS011;43562;43.064;0.160;2022-08-19T14:08:18;2.15;;;0.85;;
57720;SDS011;43562;43.064;0.160;2022-08-19T14:10:45;1.50;;;1.00;;
57720;SDS011;43562;43.064;0.160;2022-08-19T14:13:13;2.65;;;1.20;;
57720;SDS011;43562;43.064;0.160;2022-08-19T14:15:39;1.60;;;1.10;;
57720;SDS011;43562;43.064;0.160;2022-08-19T14:18:05;1.20;;;1.10;;
57720;SDS011;43562;43.064;0.160;2022-08-19T14:20:33;1.23;;;1.00;;
57720;SDS011;43562;43.064;0.160;2022-08-19T14:23:00;3.38;;;1.13;;
57720;SDS011;43562;43.064;0.160;2022-08-19T14:25:27;1.30;;;0.90;;
57720;SDS011;43562;43.064;0.160;2022-08-19T14:27:54;1.10;;;0.98;;
57720;SDS011;43562;43.064;0.160;2022-08-19T14:30:22;2.67;;;1.10;;
57720;SDS011;43562;43.064;0.160;2022-08-19T14:32:50;2.70;;;1.08;;
57720;SDS011;43562;43.064;0.160;2022-08-19T14:35:16;1.65;;;1.10;;
57720;SDS011;43562;43.064;0.160;2022-08-19T14:37:43;0.93;;;0.93;;
57720;SDS011;43562;43.064;0.160;2022-08-19T14:40:10;1.35;;;1.20;;
57720;SDS011;43562;43.064;0.160;2022-08-19T14:42:36;2.97;;;1.40;;
57720;SDS011;43562;43.064;0.160;2022-08-19T14:45:02;1.30;;;1.20;;
57720;SDS011;43562;43.064;0.160;2022-08-19T14:47:30;1.38;;;1.27;;
57720;SDS011;43562;43.064;0.160;2022-08-19T14:49:56;1.70;;;1.15;;
57720;SDS011;43562;43.064;0.160;2022-08-19T14:52:22;2.55;;;1.15;;
57720;SDS011;43562;43.064;0.160;2022-08-19T14:54:48;1.58;;;1.10;;
57720;SDS011;43562;43.064;0.160;2022-08-19T14:57:14;1.90;;;1.20;;
57720;SDS011;43562;43.064;0.160;2022-08-19T14:59:41;1.63;;;1.25;;
57720;SDS011;43562;43.064;0.160;2022-08-19T15:02:08;1.30;;;1.20;;